Time;durP1;ratioP1;P1;durP2;ratioP2;P2;SDS_P1;SDS_P2;PMS_P1;PMS_P2;Temp;Humidity;BMP_temperature;BMP_pressure;BME280_temperature;BME280_humidity;BME280_pressure;Samples;Min_cycle;Max_cycle;Signal;HPM_P1;HPM_P2
2022/05/29 00:02:21;;;;;;;4.43;2.83;;;13.80;99.90;;;;;;5031745;28;20720;-60
2022/05/29 00:04:48;;;;;;;3.80;2.50;;;13.90;99.90;;;;;;5031748;28;20707;-60
2022/05/29 00:07:17;;;;;;;4.70;2.97;;;13.90;99.90;;;;;;5031747;28;20213;-59
2022/05/29 00:09:48;;;;;;;5.13;2.90;;;13.80;99.90;;;;;;5031572;28;20236;-60
2022/05/29 00:12:15;;;;;;;3.87;2.70;;;13.90;99.90;;;;;;5031871;28;20340;-60
2022/05/29 00:14:43;;;;;;;3.17;2.40;;;13.80;99.90;;;;;;5031772;28;20207;-60
2022/05/29 00:17:10;;;;;;;4.40;2.20;;;13.80;99.90;;;;;;5031565;28;20206;-60
2022/05/29 00:19:38;;;;;;;3.20;2.20;;;13.80;99.90;;;;;;5031219;28;20772;-59
2022/05/29 00:22:05;;;;;;;4.60;2.40;;;13.80;99.90;;;;;;5031745;28;20237;-60
2022/05/29 00:24:32;;;;;;;4.73;2.30;;;13.80;99.90;;;;;;5031812;28;20202;-60
2022/05/29 00:26:58;;;;;;;3.80;2.30;;;13.70;99.90;;;;;;5031995;28;20206;-60
2022/05/29 00:29:25;;;;;;;5.00;2.13;;;13.70;99.90;;;;;;5031610;28;20230;-60
2022/05/29 00:31:52;;;;;;;5.10;2.20;;;13.60;99.90;;;;;;5031636;28;20249;-60
2022/05/29 00:34:19;;;;;;;4.17;1.93;;;13.60;99.90;;;;;;5031982;28;20214;-60
2022/05/29 00:36:47;;;;;;;4.23;2.17;;;13.60;99.90;;;;;;5032258;28;20210;-60
2022/05/29 00:39:16;;;;;;;2.83;1.93;;;13.50;99.90;;;;;;5032076;28;20234;-60
2022/05/29 00:41:43;;;;;;;5.67;2.00;;;13.50;99.90;;;;;;5031669;28;20222;-60
2022/05/29 00:44:16;;;;;;;3.53;1.80;;;13.50;99.90;;;;;;5031738;28;20206;-60
2022/05/29 00:46:45;;;;;;;3.87;1.70;;;13.50;99.90;;;;;;5031430;28;20658;-60
2022/05/29 00:49:13;;;;;;;3.87;1.90;;;13.50;99.90;;;;;;5031375;28;20297;-60
2022/05/29 00:51:43;;;;;;;3.67;2.10;;;13.60;99.90;;;;;;5031673;28;20237;-60
2022/05/29 00:54:13;;;;;;;4.27;2.13;;;13.60;99.90;;;;;;5031662;28;20206;-60
2022/05/29 00:56:41;;;;;;;4.63;2.10;;;13.70;99.90;;;;;;5031548;28;20217;-60
2022/05/29 00:59:12;;;;;;;3.60;2.20;;;13.70;99.90;;;;;;5030890;28;20218;-60
2022/05/29 01:01:38;;;;;;;5.40;2.17;;;13.70;99.90;;;;;;5031454;28;20218;-60
2022/05/29 01:04:05;;;;;;;3.53;1.97;;;13.70;99.90;;;;;;5031506;28;20202;-60
2022/05/29 01:06:32;;;;;;;4.17;1.77;;;13.70;99.90;;;;;;5031317;28;20704;-60
2022/05/29 01:09:00;;;;;;;4.13;1.87;;;13.70;99.90;;;;;;5031564;28;20210;-60
2022/05/29 01:11:35;;;;;;;2.93;1.70;;;13.70;99.90;;;;;;5034895;28;20209;-60
2022/05/29 01:14:16;;;;;;;3.67;1.40;;;13.70;99.90;;;;;;5035056;28;20669;-60
2022/05/29 01:16:51;;;;;;;3.50;1.73;;;13.70;99.90;;;;;;5034651;28;20206;-59
2022/05/29 01:19:51;;;;;;;4.73;1.60;;;13.80;99.90;;;;;;5034414;28;20238;-60
2022/05/29 01:22:32;;;;;;;5.50;1.80;;;13.80;99.90;;;;;;5034819;28;20233;-59
2022/05/29 01:25:13;;;;;;;4.00;1.33;;;13.90;99.90;;;;;;5034946;28;20213;-60
2022/05/29 01:27:50;;;;;;;3.37;1.77;;;13.90;99.90;;;;;;5034582;28;20217;-60
2022/05/29 01:30:21;;;;;;;3.43;1.60;;;13.80;99.90;;;;;;5034118;28;20229;-60
2022/05/29 01:32:57;;;;;;;4.53;1.93;;;13.80;99.90;;;;;;5034784;28;20210;-60
2022/05/29 01:35:28;;;;;;;8.63;5.63;;;13.70;99.90;;;;;;5034491;28;20210;-60
2022/05/29 01:38:01;;;;;;;3.87;2.70;;;13.70;99.90;;;;;;5034358;28;20211;-60
2022/05/29 01:40:38;;;;;;;4.57;1.87;;;13.80;99.90;;;;;;5034048;28;20304;-60
2022/05/29 01:43:16;;;;;;;4.67;1.43;;;13.90;99.90;;;;;;5034307;28;20226;-60
2022/05/29 01:45:54;;;;;;;3.43;1.43;;;14.00;99.90;;;;;;5034100;28;20205;-60
2022/05/29 01:48:30;;;;;;;3.73;1.57;;;14.00;99.90;;;;;;5034144;28;20209;-59
2022/05/29 01:51:00;;;;;;;5.07;2.97;;;14.00;99.90;;;;;;5033730;28;20233;-59
2022/05/29 01:53:32;;;;;;;4.63;1.57;;;14.00;99.90;;;;;;5034296;28;20245;-62
2022/05/29 01:56:03;;;;;;;3.40;2.23;;;13.90;99.90;;;;;;5034078;28;20333;-60
2022/05/29 01:58:34;;;;;;;4.47;1.70;;;13.90;99.90;;;;;;5033988;28;20206;-62
2022/05/29 02:01:04;;;;;;;3.33;1.87;;;13.90;99.90;;;;;;5033646;28;20234;-60
2022/05/29 02:03:34;;;;;;;2.13;1.40;;;13.90;99.90;;;;;;5033725;28;20218;-60
2022/05/29 02:06:07;;;;;;;2.33;1.43;;;13.70;99.90;;;;;;5033991;28;20345;-59
2022/05/29 02:08:41;;;;;;;3.40;1.33;;;13.70;99.90;;;;;;5034151;28;20245;-60
2022/05/29 02:11:12;;;;;;;3.63;1.37;;;13.40;99.90;;;;;;5033658;28;20234;-60
2022/05/29 02:13:46;;;;;;;3.57;1.57;;;13.40;99.90;;;;;;5034017;28;20210;-60
2022/05/29 02:16:18;;;;;;;2.63;1.43;;;13.40;99.90;;;;;;5033716;28;20210;-60
2022/05/29 02:18:50;;;;;;;4.60;1.50;;;13.40;99.90;;;;;;5033924;28;20216;-60
2022/05/29 02:21:22;;;;;;;4.23;1.37;;;13.40;99.90;;;;;;5033284;28;20621;-60
2022/05/29 02:23:52;;;;;;;2.47;1.40;;;13.40;99.90;;;;;;5034024;28;20226;-60
2022/05/29 02:26:24;;;;;;;1.77;1.03;;;13.40;99.90;;;;;;5034259;28;20202;-60
2022/05/29 02:28:55;;;;;;;3.77;1.47;;;13.40;99.90;;;;;;5033613;28;20249;-61
2022/05/29 02:31:35;;;;;;;4.47;1.17;;;13.40;99.90;;;;;;5033566;28;20284;-60
2022/05/29 02:34:10;;;;;;;3.70;1.20;;;13.40;99.90;;;;;;5033524;28;20213;-60
2022/05/29 02:36:43;;;;;;;4.40;1.60;;;13.30;99.90;;;;;;5033291;28;20260;-60
2022/05/29 02:39:23;;;;;;;1.87;1.30;;;13.30;99.90;;;;;;5032782;28;20207;-60
2022/05/29 02:42:01;;;;;;;2.53;1.50;;;13.30;99.90;;;;;;5033227;28;20206;-60
2022/05/29 02:44:38;;;;;;;2.30;1.20;;;13.30;99.90;;;;;;5033180;28;20202;-60
2022/05/29 02:47:17;;;;;;;3.20;1.37;;;13.40;99.90;;;;;;5033071;28;20202;-60
2022/05/29 02:49:51;;;;;;;8.00;1.90;;;13.30;99.90;;;;;;5032872;28;20230;-60
2022/05/29 02:52:19;;;;;;;1.60;1.40;;;13.40;99.90;;;;;;5033219;28;20217;-60
2022/05/29 02:54:46;;;;;;;6.17;1.40;;;13.40;99.90;;;;;;5032826;28;20237;-60
2022/05/29 02:57:12;;;;;;;2.77;1.73;;;13.50;99.90;;;;;;5032844;28;20218;-60
2022/05/29 02:59:46;;;;;;;4.03;1.37;;;13.50;99.90;;;;;;5032336;28;20230;-60
2022/05/29 03:02:24;;;;;;;5.27;1.30;;;13.50;99.90;;;;;;5032671;28;20254;-60
2022/05/29 03:04:56;;;;;;;4.03;1.50;;;13.50;99.90;;;;;;5032768;28;20202;-60
2022/05/29 03:07:33;;;;;;;3.37;1.60;;;13.60;99.90;;;;;;5032799;28;20238;-60
2022/05/29 03:10:12;;;;;;;2.33;1.33;;;13.60;99.90;;;;;;5032402;28;20604;-61
2022/05/29 03:12:49;;;;;;;5.57;1.80;;;13.50;99.90;;;;;;5032762;28;20205;-59
2022/05/29 03:15:24;;;;;;;2.97;1.40;;;13.40;99.90;;;;;;5032775;28;20297;-61
2022/05/29 03:18:00;;;;;;;3.13;1.60;;;13.50;99.90;;;;;;5032418;28;20260;-61
2022/05/29 03:20:40;;;;;;;3.53;1.37;;;13.50;99.90;;;;;;5032192;28;20238;-60
2022/05/29 03:23:20;;;;;;;2.37;1.33;;;13.60;99.90;;;;;;5032537;28;20307;-60
2022/05/29 03:25:51;;;;;;;3.13;1.60;;;13.60;99.90;;;;;;5032445;28;20213;-61
2022/05/29 03:28:24;;;;;;;3.10;1.47;;;13.60;99.90;;;;;;5032419;28;20206;-61
2022/05/29 03:30:53;;;;;;;4.60;1.53;;;13.70;99.90;;;;;;5031913;28;20230;-60
2022/05/29 03:33:21;;;;;;;2.63;1.70;;;13.70;99.90;;;;;;5031569;28;20202;-60
2022/05/29 03:36:04;;;;;;;2.93;1.47;;;13.70;99.90;;;;;;5032382;28;20206;-60
2022/05/29 03:38:31;;;;;;;1.90;1.30;;;13.60;99.90;;;;;;5032334;28;20297;-62
2022/05/29 03:40:58;;;;;;;3.10;1.23;;;13.60;99.90;;;;;;5032008;28;20638;-61
2022/05/29 03:43:25;;;;;;;5.70;1.40;;;13.50;99.90;;;;;;5031926;28;20724;-60
2022/05/29 03:45:51;;;;;;;4.57;1.33;;;13.30;99.90;;;;;;5032269;28;20217;-61
2022/05/29 03:48:18;;;;;;;6.17;1.50;;;13.30;99.90;;;;;;5032198;28;20209;-60
2022/05/29 03:50:46;;;;;;;5.50;1.27;;;13.20;99.90;;;;;;5032178;28;20230;-61
2022/05/29 03:53:13;;;;;;;2.67;1.60;;;13.20;99.90;;;;;;5032085;28;20336;-60
2022/05/29 03:55:39;;;;;;;3.20;1.33;;;13.10;99.90;;;;;;5031938;28;20686;-63
2022/05/29 03:58:06;;;;;;;2.77;1.53;;;13.10;99.90;;;;;;5031975;28;20670;-61
2022/05/29 04:00:33;;;;;;;3.77;1.60;;;13.10;99.90;;;;;;5031748;28;20284;-60
2022/05/29 04:03:02;;;;;;;4.67;1.10;;;13.10;99.90;;;;;;5031874;28;20230;-61
2022/05/29 04:05:30;;;;;;;3.03;1.47;;;13.20;99.90;;;;;;5032272;28;20206;-61
2022/05/29 04:13:29;;;;;;;3.37;1.40;;;13.20;99.90;;;;;;5031749;28;20197;-61
2022/05/29 04:15:55;;;;;;;3.93;1.67;;;13.20;99.90;;;;;;5031664;28;20255;-61
2022/05/29 04:18:22;;;;;;;5.03;1.43;;;13.30;99.90;;;;;;5031643;28;20670;-60
2022/05/29 04:20:51;;;;;;;2.80;1.20;;;13.30;99.90;;;;;;5031258;28;20288;-60
2022/05/29 04:23:21;;;;;;;4.07;1.47;;;13.40;99.90;;;;;;5031529;28;20228;-60
2022/05/29 04:25:47;;;;;;;3.20;1.20;;;13.30;99.90;;;;;;5031712;28;20206;-60
2022/05/29 04:28:14;;;;;;;3.30;1.30;;;13.20;99.90;;;;;;5031647;28;20210;-60
2022/05/29 04:30:41;;;;;;;3.40;1.30;;;13.10;99.90;;;;;;5031342;28;20226;-59
2022/05/29 04:33:08;;;;;;;3.90;1.33;;;13.00;99.90;;;;;;5031625;28;20198;-60
2022/05/29 04:35:38;;;;;;;3.40;1.30;;;13.00;99.90;;;;;;5031725;28;20237;-60
2022/05/29 04:38:06;;;;;;;4.80;1.37;;;12.90;99.90;;;;;;5032027;28;20210;-60
2022/05/29 04:40:36;;;;;;;1.63;1.10;;;12.90;99.90;;;;;;5031353;28;20226;-61
2022/05/29 04:43:03;;;;;;;2.80;1.57;;;12.80;99.90;;;;;;5031922;28;20222;-61
2022/05/29 04:45:30;;;;;;;3.70;1.20;;;12.80;99.90;;;;;;5035318;28;20233;-61
2022/05/29 04:47:56;;;;;;;2.67;1.40;;;12.70;99.90;;;;;;5034908;28;20209;-61
2022/05/29 04:50:23;;;;;;;9.50;1.43;;;12.60;99.90;;;;;;5034792;28;20717;-61
2022/05/29 04:52:50;;;;;;;5.30;1.80;;;12.40;99.90;;;;;;5035054;28;20213;-60
2022/05/29 04:55:17;;;;;;;3.77;1.50;;;12.20;99.90;;;;;;5035251;28;20214;-61
2022/05/29 04:57:46;;;;;;;3.93;1.60;;;12.40;99.90;;;;;;5035163;28;20202;-61
2022/05/29 05:00:13;;;;;;;2.67;1.27;;;12.30;99.90;;;;;;5034991;28;20222;-61
2022/05/29 05:02:40;;;;;;;4.23;1.63;;;12.30;99.90;;;;;;5034921;28;20230;-60
2022/05/29 05:05:08;;;;;;;3.03;1.40;;;12.30;99.90;;;;;;5035135;28;20217;-61
2022/05/29 05:07:35;;;;;;;5.20;1.80;;;12.30;99.90;;;;;;5034804;28;20211;-61
2022/05/29 05:10:02;;;;;;;3.83;1.70;;;12.20;99.90;;;;;;5034908;28;20313;-60
2022/05/29 05:12:29;;;;;;;4.63;1.50;;;12.30;99.90;;;;;;5034902;28;20206;-61
2022/05/29 05:14:57;;;;;;;3.00;1.50;;;12.30;99.90;;;;;;5035073;28;20252;-60
2022/05/29 05:17:24;;;;;;;3.93;1.50;;;12.50;99.90;;;;;;5034664;28;20210;-59
2022/05/29 05:19:51;;;;;;;3.23;1.63;;;12.60;99.90;;;;;;5034807;28;20787;-59
2022/05/29 05:22:17;;;;;;;2.57;1.60;;;12.60;99.90;;;;;;5034824;28;20260;-59
2022/05/29 05:24:44;;;;;;;3.00;1.63;;;12.70;99.90;;;;;;5034920;28;20226;-59
2022/05/29 05:27:12;;;;;;;2.73;1.33;;;12.80;99.90;;;;;;5034641;28;20260;-60
2022/05/29 05:29:39;;;;;;;3.73;1.60;;;13.00;99.90;;;;;;5034542;28;20710;-59
2022/05/29 05:32:08;;;;;;;3.87;1.30;;;13.00;99.90;;;;;;5034752;28;20213;-62
2022/05/29 05:34:35;;;;;;;3.10;1.47;;;13.30;99.90;;;;;;5034717;28;20245;-59
2022/05/29 05:37:02;;;;;;;2.50;1.60;;;13.50;99.90;;;;;;5034629;28;20612;-60
2022/05/29 05:39:29;;;;;;;2.43;1.20;;;14.10;99.90;;;;;;5034214;28;20237;-60
2022/05/29 05:41:56;;;;;;;3.20;1.20;;;14.60;99.90;;;;;;5034358;28;20206;-60
2022/05/29 05:44:23;;;;;;;4.47;1.73;;;14.80;99.90;;;;;;5033878;28;20674;-59
2022/05/29 05:46:53;;;;;;;2.73;1.27;;;14.90;99.90;;;;;;5034386;28;20682;-60
2022/05/29 05:49:23;;;;;;;2.83;1.27;;;14.90;99.90;;;;;;5034141;28;20226;-59
2022/05/29 05:51:51;;;;;;;3.67;1.40;;;15.00;99.90;;;;;;5034055;28;20294;-60
2022/05/29 05:54:18;;;;;;;4.20;1.40;;;15.00;99.90;;;;;;5034048;28;20198;-60
2022/05/29 05:56:47;;;;;;;3.53;1.90;;;15.00;99.90;;;;;;5033432;28;20674;-60
2022/05/29 05:59:15;;;;;;;2.23;1.10;;;15.00;99.90;;;;;;5034066;28;20307;-60
2022/05/29 06:01:42;;;;;;;2.33;1.37;;;15.20;99.90;;;;;;5033881;28;20206;-59
2022/05/29 06:04:09;;;;;;;3.23;1.53;;;15.30;99.90;;;;;;5033762;28;20709;-60
2022/05/29 06:06:37;;;;;;;3.77;1.40;;;15.50;99.90;;;;;;5033925;28;20202;-60
2022/05/29 06:09:04;;;;;;;2.93;1.30;;;15.80;99.90;;;;;;5033546;28;20674;-59
2022/05/29 06:11:32;;;;;;;2.77;1.80;;;16.00;99.90;;;;;;5033419;28;20674;-60
2022/05/29 06:13:58;;;;;;;2.80;1.63;;;16.20;99.90;;;;;;5034019;28;20198;-61
2022/05/29 06:16:25;;;;;;;2.60;1.57;;;16.30;99.90;;;;;;5033823;28;20210;-60
2022/05/29 06:18:52;;;;;;;3.97;1.77;;;16.30;99.90;;;;;;5033702;28;20296;-60
2022/05/29 06:21:19;;;;;;;2.77;1.37;;;16.30;99.90;;;;;;5033195;28;20218;-61
2022/05/29 06:23:47;;;;;;;2.90;1.33;;;16.20;99.90;;;;;;5033452;28;20655;-61
2022/05/29 06:26:14;;;;;;;4.20;1.43;;;16.10;99.90;;;;;;5033597;28;20353;-60
2022/05/29 06:28:41;;;;;;;5.43;1.80;;;15.90;99.90;;;;;;5033453;28;20669;-61
2022/05/29 06:31:11;;;;;;;4.70;1.70;;;15.90;99.90;;;;;;5033239;28;20227;-65
2022/05/29 06:33:38;;;;;;;4.80;1.20;;;15.90;99.90;;;;;;5033384;28;20627;-65
2022/05/29 06:36:09;;;;;;;3.63;1.30;;;16.30;99.50;;;;;;5033319;28;20210;-66
2022/05/29 06:38:36;;;;;;;1.60;1.10;;;16.60;98.90;;;;;;5033526;28;20210;-66
2022/05/29 06:41:06;;;;;;;2.47;1.27;;;16.80;98.00;;;;;;5033555;28;20280;-64
2022/05/29 06:43:34;;;;;;;3.43;1.50;;;17.00;97.20;;;;;;5033527;28;20222;-64
2022/05/29 06:46:02;;;;;;;3.60;1.40;;;17.10;97.00;;;;;;5033735;28;20280;-68
2022/05/29 06:48:29;;;;;;;4.43;1.40;;;17.10;96.70;;;;;;5033389;28;20213;-68
2022/05/29 06:50:56;;;;;;;2.87;1.37;;;17.00;97.20;;;;;;5033011;28;20551;-68
2022/05/29 06:53:24;;;;;;;4.35;1.40;;;17.30;96.40;;;;;;5032933;28;20665;-63
2022/05/29 06:55:54;;;;;;;2.67;1.20;;;17.50;96.10;;;;;;5034008;28;20210;-65
2022/05/29 06:58:23;;;;;;;2.15;1.33;;;17.50;96.90;;;;;;5033190;28;20211;-65
2022/05/29 07:09:07;;;;;;;6.28;2.28;;;18.00;94.70;;;;;;5032625;28;20268;-64
2022/05/29 07:11:39;;;;;;;4.18;1.30;;;17.50;95.50;;;;;;5032508;28;20213;-65
2022/05/29 07:14:09;;;;;;;4.82;1.30;;;16.90;95.50;;;;;;5032582;28;20625;-66
2022/05/29 07:16:37;;;;;;;4.75;1.70;;;16.50;96.40;;;;;;5033075;28;20206;-65
2022/05/29 07:19:04;;;;;;;4.33;1.40;;;16.40;96.90;;;;;;5032457;28;20237;-59
2022/05/29 07:21:33;;;;;;;4.00;1.60;;;16.50;96.40;;;;;;5032336;28;20256;-60
2022/05/29 07:24:00;;;;;;;2.73;1.30;;;16.80;96.00;;;;;;5032604;28;20230;-58
2022/05/29 07:26:27;;;;;;;3.97;1.40;;;17.30;95.40;;;;;;5032216;28;20210;-59
2022/05/29 07:28:54;;;;;;;4.10;1.47;;;17.50;94.90;;;;;;5032631;28;20210;-59
2022/05/29 07:31:22;;;;;;;3.63;1.50;;;17.80;94.50;;;;;;5032338;28;20254;-59
2022/05/29 07:33:48;;;;;;;6.03;1.60;;;17.70;94.20;;;;;;5032395;28;20206;-59
2022/05/29 07:36:17;;;;;;;4.60;1.63;;;17.80;93.90;;;;;;5032346;28;20707;-60
2022/05/29 07:38:44;;;;;;;3.30;1.48;;;17.90;93.90;;;;;;5032346;28;20233;-61
2022/05/29 07:43:55;;;;;;;3.03;1.25;;;18.70;92.30;;;;;;5032229;28;20736;-59
2022/05/29 07:46:23;;;;;;;4.88;1.73;;;20.10;90.30;;;;;;5032027;28;20713;-59
2022/05/29 07:48:51;;;;;;;4.38;1.52;;;21.30;84.40;;;;;;5032329;28;20206;-60
2022/05/29 07:51:18;;;;;;;3.35;1.33;;;21.50;81.90;;;;;;5032206;28;20230;-59
2022/05/29 07:53:45;;;;;;;2.35;1.42;;;21.40;81.40;;;;;;5032163;28;20252;-60
2022/05/29 07:56:16;;;;;;;4.03;1.35;;;21.20;80.50;;;;;;5032514;28;20217;-59
2022/05/29 07:58:43;;;;;;;6.63;1.60;;;21.20;79.80;;;;;;5032312;28;20221;-59
2022/05/29 08:01:11;;;;;;;3.50;1.17;;;21.10;77.80;;;;;;5032051;28;20280;-60
2022/05/29 08:03:39;;;;;;;3.25;1.63;;;20.70;78.30;;;;;;5032089;28;20308;-60
2022/05/29 08:06:06;;;;;;;5.75;1.70;;;20.30;79.80;;;;;;5031686;28;20202;-60
2022/05/29 08:08:33;;;;;;;2.95;1.50;;;19.90;80.50;;;;;;5031972;28;20264;-59
2022/05/29 08:11:00;;;;;;;3.05;1.58;;;19.60;81.20;;;;;;5031578;28;20234;-60
2022/05/29 08:13:26;;;;;;;4.53;1.60;;;19.30;81.40;;;;;;5031485;28;20284;-59
2022/05/29 08:15:53;;;;;;;4.63;1.92;;;19.10;82.10;;;;;;5032080;28;20205;-60
2022/05/29 08:18:20;;;;;;;3.60;1.45;;;18.90;83.80;;;;;;5032874;28;20248;-60
2022/05/29 08:20:48;;;;;;;5.68;1.60;;;18.90;84.00;;;;;;5035333;28;20753;-59
2022/05/29 08:23:14;;;;;;;3.90;1.60;;;19.30;82.90;;;;;;5035965;28;20298;-59
2022/05/29 08:31:09;;;;;;;3.28;1.40;;;20.10;81.30;;;;;;5035383;28;20303;-60
2022/05/29 08:33:37;;;;;;;4.88;1.70;;;20.20;81.10;;;;;;5035640;28;20272;-60
2022/05/29 08:36:07;;;;;;;2.85;1.58;;;20.20;80.10;;;;;;5035476;28;20210;-61
2022/05/29 08:38:35;;;;;;;3.70;1.35;;;19.90;80.20;;;;;;5035455;28;20210;-61
2022/05/29 08:41:04;;;;;;;3.78;1.45;;;19.90;80.60;;;;;;5035101;28;20284;-61
2022/05/29 08:43:35;;;;;;;4.20;1.73;;;19.90;79.80;;;;;;5034986;28;20214;-61
2022/05/29 08:46:06;;;;;;;4.82;1.70;;;19.90;78.70;;;;;;5035583;28;20210;-61
2022/05/29 08:48:33;;;;;;;5.05;1.73;;;19.70;80.50;;;;;;5035285;28;20252;-60
2022/05/29 08:51:18;;;;;;;3.78;1.40;;;19.70;80.00;;;;;;5035003;28;20230;-60
2022/05/29 08:53:51;;;;;;;4.32;1.50;;;19.90;78.90;;;;;;5035149;28;20207;-60
2022/05/29 08:56:26;;;;;;;3.25;1.17;;;20.00;77.50;;;;;;5035124;28;20557;-61
2022/05/29 08:59:07;;;;;;;5.63;1.92;;;20.10;78.80;;;;;;5035377;28;20206;-61
2022/05/29 09:01:47;;;;;;;7.82;1.35;;;20.20;78.30;;;;;;5034806;28;20675;-61
2022/05/29 09:04:25;;;;;;;4.07;1.60;;;20.00;77.10;;;;;;5034869;28;20218;-59
2022/05/29 09:06:57;;;;;;;3.50;1.10;;;19.70;78.50;;;;;;5035118;28;20290;-60
2022/05/29 09:09:33;;;;;;;4.38;1.67;;;19.70;77.70;;;;;;5031311;28;20521;-60
2022/05/29 09:12:05;;;;;;;7.10;1.45;;;19.90;77.10;;;;;;5033279;28;20271;-60
2022/05/29 09:14:40;;;;;;;3.85;1.30;;;20.30;77.30;;;;;;5033869;28;20229;-61
2022/05/29 09:17:13;;;;;;;3.03;1.25;;;20.90;73.50;;;;;;5033680;28;20589;-61
2022/05/29 09:19:48;;;;;;;3.08;1.20;;;21.40;72.80;;;;;;5032854;28;20321;-61
2022/05/29 09:22:23;;;;;;;6.05;1.85;;;21.90;69.10;;;;;;5033755;28;20201;-64
2022/05/29 09:25:06;;;;;;;5.05;2.28;;;21.70;73.80;;;;;;5033344;28;20225;-60
2022/05/29 09:27:34;;;;;;;6.30;2.50;;;20.90;78.40;;;;;;5033247;28;20210;-61
2022/05/29 09:30:01;;;;;;;6.93;1.80;;;20.00;84.40;;;;;;5032397;28;20227;-60
2022/05/29 09:32:31;;;;;;;6.05;1.88;;;19.30;87.40;;;;;;5033482;28;20213;-61
2022/05/29 09:35:02;;;;;;;7.68;2.30;;;18.30;90.10;;;;;;5033528;28;20206;-61
2022/05/29 09:37:41;;;;;;;10.38;2.03;;;17.50;93.90;;;;;;5033058;28;20548;-62
2022/05/29 09:40:15;;;;;;;5.32;1.75;;;16.90;96.90;;;;;;5033237;28;20277;-62
2022/05/29 09:42:43;;;;;;;4.30;1.50;;;16.50;96.40;;;;;;5033246;28;20369;-62
2022/05/29 09:45:15;;;;;;;5.63;2.00;;;16.00;97.20;;;;;;5033138;28;20234;-62
2022/05/29 09:50:43;;;;;;;8.33;2.17;;;15.20;99.90;;;;;;5032509;28;20241;-62
2022/05/29 09:53:16;;;;;;;5.77;1.77;;;15.00;99.90;;;;;;5033412;28;20198;-61
2022/05/29 09:56:00;;;;;;;8.67;2.47;;;14.90;99.90;;;;;;5033101;28;20209;-63
2022/05/29 09:58:30;;;;;;;7.13;2.00;;;14.90;99.90;;;;;;5032726;28;20305;-61
2022/05/29 10:01:01;;;;;;;6.17;1.97;;;14.90;99.90;;;;;;5032605;28;20222;-61
2022/05/29 10:03:42;;;;;;;9.03;2.30;;;14.80;99.90;;;;;;5032620;28;20232;-61
2022/05/29 10:06:12;;;;;;;4.90;2.13;;;14.30;99.90;;;;;;5032599;28;20702;-62
2022/05/29 10:08:41;;;;;;;6.40;2.00;;;14.00;99.90;;;;;;5032625;28;20240;-61
2022/05/29 10:11:16;;;;;;;3.83;1.70;;;13.90;99.90;;;;;;5032261;28;20237;-61
2022/05/29 10:13:44;;;;;;;4.33;1.47;;;13.90;99.90;;;;;;5032878;28;20209;-62
2022/05/29 10:16:13;;;;;;;4.43;1.90;;;13.90;99.90;;;;;;5032401;28;20301;-61
2022/05/29 10:18:41;;;;;;;6.20;2.50;;;14.00;99.90;;;;;;5032472;28;20225;-61
2022/05/29 10:21:14;;;;;;;4.57;1.80;;;14.10;99.90;;;;;;5031990;28;20234;-60
2022/05/29 10:23:51;;;;;;;4.40;2.00;;;13.90;99.90;;;;;;5032417;28;20286;-61
2022/05/29 10:26:31;;;;;;;4.03;1.90;;;13.30;99.90;;;;;;5032539;28;20226;-59
2022/05/29 10:28:59;;;;;;;6.83;1.90;;;13.10;99.90;;;;;;5032346;28;20202;-60
2022/05/29 10:31:30;;;;;;;4.23;1.70;;;13.00;99.90;;;;;;5032184;28;20214;-60
2022/05/29 10:34:04;;;;;;;6.17;1.70;;;12.90;99.90;;;;;;5032122;28;20242;-60
2022/05/29 10:36:31;;;;;;;7.33;2.03;;;12.90;99.90;;;;;;5032359;28;20670;-59
2022/05/29 10:39:09;;;;;;;4.00;1.80;;;13.10;99.90;;;;;;5031898;28;20659;-60
2022/05/29 10:41:39;;;;;;;3.87;1.83;;;13.30;99.90;;;;;;5031864;28;20240;-61
2022/05/29 10:44:09;;;;;;;4.97;2.20;;;13.50;99.90;;;;;;5032051;28;20237;-60
2022/05/29 10:46:43;;;;;;;3.27;1.80;;;13.60;99.90;;;;;;5031906;28;20237;-61
2022/05/29 10:49:19;;;;;;;5.50;2.10;;;13.70;99.90;;;;;;5031825;28;20253;-60
2022/05/29 10:52:05;;;;;;;3.20;1.80;;;13.80;99.90;;;;;;5031503;28;20635;-60
2022/05/29 10:55:02;;;;;;;4.07;2.00;;;13.90;99.90;;;;;;5032457;28;20198;-60
2022/05/29 10:57:45;;;;;;;4.50;2.90;;;13.80;99.90;;;;;;5031742;28;20736;-59
2022/05/29 11:00:25;;;;;;;4.17;2.27;;;13.90;99.90;;;;;;5031841;28;20222;-59
2022/05/29 11:03:33;;;;;;;4.17;2.40;;;13.90;99.90;;;;;;5031612;28;20225;-59
2022/05/29 11:06:21;;;;;;;5.30;3.40;;;14.00;99.90;;;;;;4996602;28;20375;-60
2022/05/29 11:09:01;;;;;;;4.83;1.57;;;14.10;99.90;;;;;;5028735;28;20215;-60
2022/05/29 11:11:39;;;;;;;4.20;2.00;;;14.00;99.90;;;;;;5031147;28;20670;-61
2022/05/29 11:14:34;;;;;;;3.70;1.47;;;14.10;99.90;;;;;;5031636;28;20217;-60
2022/05/29 11:17:08;;;;;;;4.87;1.60;;;14.00;99.90;;;;;;5029668;28;20217;-61
2022/05/29 11:19:56;;;;;;;2.93;1.63;;;14.00;99.90;;;;;;5031588;28;20238;-59
2022/05/29 11:22:26;;;;;;;2.63;1.67;;;13.90;99.90;;;;;;5011910;28;20570;-56
2022/05/29 11:25:09;;;;;;;4.83;1.70;;;13.90;99.90;;;;;;5011977;28;20219;-59
2022/05/29 11:27:50;;;;;;;4.27;1.30;;;13.90;99.90;;;;;;5011174;28;20210;-59
2022/05/29 11:30:24;;;;;;;4.33;2.20;;;14.00;99.90;;;;;;5011454;28;20230;-60
2022/05/29 11:33:11;;;;;;;4.23;2.33;;;14.30;99.90;;;;;;5014863;28;20725;-60
2022/05/29 11:36:00;;;;;;;5.30;2.80;;;14.50;99.90;;;;;;5030585;28;20482;-60
2022/05/29 11:39:07;;;;;;;7.37;4.37;;;14.60;99.90;;;;;;5031161;28;20674;-65
2022/05/29 11:41:40;;;;;;;2.47;1.90;;;14.60;99.90;;;;;;5024816;28;20214;-59
2022/05/29 11:44:18;;;;;;;4.93;1.50;;;14.60;99.90;;;;;;5031138;28;20581;-58
2022/05/29 11:52:27;;;;;;;7.53;2.20;;;14.20;99.90;;;;;;5030808;28;20339;-60
2022/05/29 11:55:00;;;;;;;2.80;1.97;;;14.20;99.90;;;;;;5030716;28;20343;-59
2022/05/29 11:57:32;;;;;;;3.90;1.90;;;14.20;99.90;;;;;;5030698;28;20301;-60
2022/05/29 12:00:07;;;;;;;4.57;1.57;;;14.20;99.90;;;;;;5030907;28;20725;-59
2022/05/29 12:02:42;;;;;;;5.17;1.63;;;14.10;99.90;;;;;;5031184;28;20214;-60
2022/05/29 12:05:17;;;;;;;3.47;1.20;;;14.00;99.90;;;;;;5030566;28;20705;-58
2022/05/29 12:07:50;;;;;;;2.07;1.20;;;13.90;99.90;;;;;;5030969;28;20202;-63
2022/05/29 12:10:22;;;;;;;3.47;1.57;;;13.80;99.90;;;;;;5031361;28;20233;-57
2022/05/29 12:12:57;;;;;;;3.77;1.90;;;13.70;99.90;;;;;;5031923;28;20202;-58
2022/05/29 12:15:25;;;;;;;3.40;1.60;;;13.80;99.90;;;;;;5028480;28;20355;-60
2022/05/29 12:17:57;;;;;;;2.87;1.70;;;13.80;99.90;;;;;;5030574;28;20206;-60
2022/05/29 12:20:38;;;;;;;4.27;1.50;;;13.80;99.90;;;;;;5030117;28;20295;-60
2022/05/29 12:23:11;;;;;;;5.07;1.47;;;13.70;99.90;;;;;;5030829;28;20297;-60
2022/05/29 12:25:43;;;;;;;2.47;1.57;;;13.70;99.90;;;;;;5030527;28;20701;-60
2022/05/29 12:28:14;;;;;;;3.07;1.60;;;13.90;99.90;;;;;;5031151;28;20273;-60
2022/05/29 12:30:45;;;;;;;2.40;1.40;;;14.30;99.90;;;;;;5030451;28;20265;-61
2022/05/29 12:33:17;;;;;;;3.07;1.50;;;14.60;99.90;;;;;;5030319;28;20256;-61
2022/05/29 12:35:52;;;;;;;2.20;1.10;;;15.00;99.90;;;;;;5030020;28;20710;-62
2022/05/29 12:38:41;;;;;;;3.80;1.23;;;15.50;99.90;;;;;;5030900;28;20213;-62
2022/05/29 12:41:19;;;;;;;2.33;1.07;;;15.60;99.90;;;;;;5030230;28;20234;-61
2022/05/29 12:44:11;;;;;;;1.93;1.10;;;15.60;99.90;;;;;;5030823;28;20233;-62
2022/05/29 12:47:02;;;;;;;2.73;0.80;;;15.80;99.90;;;;;;4997336;28;20264;-62
2022/05/29 12:49:59;;;;;;;1.70;0.83;;;16.10;99.90;;;;;;5030480;28;20232;-61
2022/05/29 12:52:42;;;;;;;1.77;1.50;;;16.20;99.90;;;;;;5030579;28;20264;-60
2022/05/29 12:55:40;;;;;;;1.70;1.00;;;16.60;99.90;;;;;;5030286;28;20203;-62
2022/05/29 12:58:30;;;;;;;4.13;1.10;;;16.60;99.90;;;;;;5030422;28;20214;-60
2022/05/29 13:01:33;;;;;;;2.13;1.33;;;16.60;99.90;;;;;;5030318;28;20226;-61
2022/05/29 13:04:38;;;;;;;1.37;1.10;;;16.90;99.90;;;;;;5020680;28;20213;-58
2022/05/29 13:07:21;;;;;;;1.07;0.90;;;17.10;99.90;;;;;;5020002;28;20284;-59
2022/05/29 13:10:14;;;;;;;2.40;1.23;;;17.30;99.90;;;;;;5035243;28;20253;-60
2022/05/29 13:12:44;;;;;;;2.07;1.30;;;17.20;99.90;;;;;;5035427;28;20228;-60
2022/05/29 13:15:22;;;;;;;2.70;0.90;;;17.00;99.90;;;;;;5036021;28;20202;-60
2022/05/29 13:17:59;;;;;;;2.47;1.00;;;17.00;99.90;;;;;;5036113;28;20206;-59
2022/05/29 13:20:27;;;;;;;2.60;1.20;;;17.10;99.90;;;;;;5035578;28;20245;-59
2022/05/29 13:23:00;;;;;;;3.90;0.90;;;17.10;99.90;;;;;;5034921;28;20210;-59
2022/05/29 13:25:30;;;;;;;3.23;1.77;;;17.20;99.90;;;;;;5035081;28;20229;-60
2022/05/29 13:27:58;;;;;;;2.23;1.30;;;17.20;99.90;;;;;;5034816;28;20747;-60
2022/05/29 13:30:58;;;;;;;3.73;1.47;;;17.20;99.90;;;;;;5034347;28;20226;-60
2022/05/29 13:33:48;;;;;;;3.83;1.70;;;17.30;99.90;;;;;;5034606;28;20213;-60
2022/05/29 13:37:03;;;;;;;2.57;1.50;;;17.40;99.90;;;;;;5034774;28;20207;-60
2022/05/29 13:39:35;;;;;;;2.60;0.90;;;17.70;99.60;;;;;;5034295;28;20226;-61
2022/05/29 13:42:05;;;;;;;2.27;1.37;;;17.60;98.60;;;;;;5034591;28;20293;-61
2022/05/29 13:44:35;;;;;;;2.67;1.10;;;17.30;99.10;;;;;;5034411;28;20210;-59
2022/05/29 13:47:41;;;;;;;2.47;1.33;;;17.20;99.70;;;;;;5034272;28;20221;-59